Aviation Digital Data Service (ADDS)

Output produced by METARs form (0250 UTC 23 February 2017)
found at http://aviationweather.gov/adds/metars/
 
KFDY 230116Z 2301/2324 20009KT P6SM OVC035 
     FM230500 20008KT 6SM BR OVC025 
     FM230800 20008KT 4SM BR OVC012 
     TEMPO 2310/2314 2SM BR OVC008 
     FM231400 22008KT P6SM OVC012 
     FM231800 26008KT P6SM BKN025 
     FM232100 28008KT P6SM BKN045